Time;durP1;ratioP1;P1;durP2;ratioP2;P2;SDS_P1;SDS_P2;PMS_P1;PMS_P2;Temp;Humidity;BMP_temperature;BMP_pressure;BME280_temperature;BME280_humidity;BME280_pressure;Samples;Min_cycle;Max_cycle;Signal;HPM_P1;HPM_P2
2021/10/27 00:01:24;;;;;;;15.45;11.25;;;;;;;5.79;71.40;100597.09;1648960;86;21134;-74
2021/10/27 00:03:50;;;;;;;17.75;11.95;;;;;;;5.84;71.36;100586.66;1642320;86;21010;-77
2021/10/27 00:06:16;;;;;;;14.20;11.65;;;;;;;5.87;71.31;100592.95;1655212;86;21019;-76
2021/10/27 00:08:43;;;;;;;15.55;11.70;;;;;;;5.87;71.26;100589.45;1655349;86;20996;-77
2021/10/27 00:11:09;;;;;;;13.13;10.63;;;;;;;5.85;71.34;100587.48;1653119;86;21071;-70
2021/10/27 00:13:35;;;;;;;19.50;13.48;;;;;;;5.83;71.57;100584.17;1637760;86;21177;-71
2021/10/27 00:16:02;;;;;;;16.95;12.25;;;;;;;5.80;71.63;100575.23;1617435;88;21089;-69
2021/10/27 00:18:29;;;;;;;14.47;10.13;;;;;;;5.75;71.89;100572.33;1634689;87;21025;-69
2021/10/27 00:20:56;;;;;;;15.65;11.97;;;;;;;5.69;72.43;100571.27;1649060;86;21048;-67
2021/10/27 00:23:22;;;;;;;16.87;12.68;;;;;;;5.64;72.40;100578.53;1622308;87;21065;-66
2021/10/27 00:25:49;;;;;;;13.85;10.90;;;;;;;5.63;72.44;100577.38;1610140;88;21038;-77
2021/10/27 00:28:15;;;;;;;22.20;14.80;;;;;;;5.59;72.59;100572.13;1628656;87;21050;-68
2021/10/27 00:30:42;;;;;;;15.68;11.35;;;;;;;5.58;72.70;100579.30;1628718;87;21025;-68
2021/10/27 00:33:08;;;;;;;22.95;13.10;;;;;;;5.59;72.77;100572.13;1628594;87;21022;-67
2021/10/27 00:35:34;;;;;;;20.95;13.85;;;;;;;5.59;72.97;100574.28;1628974;87;21033;-67
2021/10/27 00:38:01;;;;;;;21.45;14.47;;;;;;;5.62;73.00;100565.87;1640040;86;21967;-69
2021/10/27 00:40:27;;;;;;;20.15;13.13;;;;;;;5.66;73.03;100567.64;1640264;86;21559;-67
2021/10/27 00:42:54;;;;;;;17.95;14.63;;;;;;;5.67;73.01;100575.45;1647308;86;21037;-69
2021/10/27 00:45:21;;;;;;;23.35;15.90;;;;;;;5.66;73.04;100574.31;1627821;86;21502;-69
2021/10/27 00:47:47;;;;;;;16.73;14.13;;;;;;;5.63;73.17;100572.05;1619413;88;20994;-70
2021/10/27 00:50:17;;;;;;;33.63;17.48;;;;;;;5.61;73.29;100568.77;1625196;86;21013;-69
2021/10/27 00:52:43;;;;;;;17.27;15.08;;;;;;;5.58;73.37;100561.12;1625325;88;21055;-69
2021/10/27 00:55:10;;;;;;;19.45;15.85;;;;;;;5.55;73.53;100561.53;1585035;89;21029;-69
2021/10/27 00:57:37;;;;;;;22.73;15.58;;;;;;;5.51;73.70;100559.77;1626201;87;21027;-69
2021/10/27 01:00:06;;;;;;;20.68;15.25;;;;;;;5.49;73.82;100560.97;1621214;87;21043;-70
2021/10/27 01:02:33;;;;;;;23.02;15.23;;;;;;;5.45;73.94;100554.39;1621027;88;21322;-70
2021/10/27 01:04:59;;;;;;;22.02;15.48;;;;;;;5.46;74.19;100558.20;1620638;87;21066;-69
2021/10/27 01:07:25;;;;;;;23.73;16.23;;;;;;;5.47;74.27;100559.00;1608864;88;21071;-68
2021/10/27 01:09:52;;;;;;;22.27;16.30;;;;;;;5.49;74.45;100559.64;1631145;86;21520;-67
2021/10/27 01:12:18;;;;;;;21.05;16.25;;;;;;;5.51;74.58;100553.61;1651535;86;21588;-68
2021/10/27 01:14:46;;;;;;;21.62;16.02;;;;;;;5.50;74.75;100542.62;1626712;86;21244;-68
2021/10/27 01:17:16;;;;;;;22.20;16.60;;;;;;;5.48;74.85;100548.14;1636258;86;21019;-68
2021/10/27 01:19:52;;;;;;;22.02;15.18;;;;;;;5.45;75.11;100557.88;1623321;86;21579;-69
2021/10/27 01:22:38;;;;;;;18.37;14.80;;;;;;;5.40;75.32;100554.14;1631770;87;22025;-69
2021/10/27 01:25:08;;;;;;;21.30;16.37;;;;;;;5.39;75.41;100545.81;1636990;86;21068;-68
2021/10/27 01:27:41;;;;;;;18.82;13.83;;;;;;;5.36;75.50;100546.22;1636915;86;21262;-67
2021/10/27 01:30:13;;;;;;;16.85;13.53;;;;;;;5.33;75.74;100552.75;1630526;87;21569;-69
2021/10/27 01:32:40;;;;;;;24.98;16.52;;;;;;;5.31;75.84;100540.64;1655089;86;20943;-70
2021/10/27 01:35:08;;;;;;;18.15;14.13;;;;;;;5.30;76.06;100549.66;1635288;86;21520;-70
2021/10/27 01:37:36;;;;;;;17.67;14.58;;;;;;;5.30;76.34;100546.99;1627700;86;21059;-68
2021/10/27 01:40:03;;;;;;;22.05;15.50;;;;;;;5.31;76.30;100535.31;1629135;86;21800;-69
2021/10/27 01:42:30;;;;;;;23.20;16.90;;;;;;;5.28;76.49;100540.50;1637489;86;20957;-70
2021/10/27 01:44:56;;;;;;;23.45;18.25;;;;;;;5.25;76.58;100536.41;1607126;88;21007;-72
2021/10/27 01:47:23;;;;;;;20.90;15.08;;;;;;;5.22;76.62;100534.14;1640942;86;20982;-69
2021/10/27 01:49:49;;;;;;;20.52;17.32;;;;;;;5.22;76.72;100535.97;1604580;88;21105;-70
2021/10/27 01:52:17;;;;;;;22.62;17.50;;;;;;;5.18;76.75;100527.52;1621136;88;21109;-69
2021/10/27 01:54:43;;;;;;;22.70;16.35;;;;;;;5.17;76.93;100523.23;1604410;88;21014;-67
2021/10/27 01:57:11;;;;;;;24.55;17.40;;;;;;;5.15;77.05;100524.42;1639384;87;21521;-68
2021/10/27 01:59:37;;;;;;;18.60;16.23;;;;;;;5.09;77.47;100522.52;1630493;85;21148;-69
2021/10/27 02:02:04;;;;;;;25.80;17.70;;;;;;;5.09;77.47;100522.52;1658050;86;21878;-71
2021/10/27 02:04:31;;;;;;;22.13;17.85;;;;;;;5.12;77.52;100524.82;1636212;86;21148;-68
2021/10/27 02:07:00;;;;;;;23.22;16.65;;;;;;;5.11;77.77;100520.50;1609514;86;21562;-69
2021/10/27 02:09:29;;;;;;;20.95;15.58;;;;;;;5.10;77.84;100518.34;1624760;87;21037;-71
2021/10/27 02:11:55;;;;;;;21.07;16.17;;;;;;;5.07;78.02;100525.41;1627692;88;21053;-70
2021/10/27 02:14:22;;;;;;;27.90;18.92;;;;;;;5.06;78.10;100525.08;1669970;85;21093;-69
2021/10/27 02:16:48;;;;;;;25.05;18.82;;;;;;;5.02;78.16;100514.49;1661402;86;21138;-69
2021/10/27 02:19:14;;;;;;;27.73;20.23;;;;;;;5.00;78.30;100513.84;1599661;88;21114;-72
2021/10/27 02:21:41;;;;;;;21.95;17.57;;;;;;;4.99;78.39;100519.39;1663007;85;21009;-71
2021/10/27 02:24:08;;;;;;;23.20;15.70;;;;;;;5.00;78.60;100525.84;1603430;86;21058;-69
2021/10/27 02:26:34;;;;;;;24.10;17.45;;;;;;;5.02;78.81;100516.33;1688375;85;21095;-70
2021/10/27 02:29:01;;;;;;;26.77;17.57;;;;;;;5.02;79.01;100520.33;1634525;86;21203;-70
2021/10/27 02:31:27;;;;;;;23.70;17.25;;;;;;;5.03;79.05;100512.15;1661297;85;20956;-70
2021/10/27 02:33:53;;;;;;;20.75;18.00;;;;;;;5.03;79.05;100512.15;1627560;88;21036;-75
2021/10/27 02:36:20;;;;;;;24.67;18.17;;;;;;;4.99;79.61;100507.40;1663350;85;21064;-73
2021/10/27 02:38:47;;;;;;;22.52;17.80;;;;;;;4.99;79.61;100507.40;1630134;86;21127;-70
2021/10/27 02:41:13;;;;;;;25.92;17.73;;;;;;;4.94;79.76;100507.95;1661256;85;21391;-69
2021/10/27 02:43:40;;;;;;;19.98;17.17;;;;;;;4.90;80.03;100506.69;1661057;85;21004;-69
2021/10/27 02:46:09;;;;;;;22.85;17.73;;;;;;;4.91;80.31;100502.19;1630035;86;21083;-72
2021/10/27 02:48:37;;;;;;;15.98;13.03;;;;;;;4.91;80.31;100502.19;1682178;85;20980;-69
2021/10/27 02:51:03;;;;;;;19.15;15.63;;;;;;;4.95;80.57;100504.78;1654655;86;21025;-71
2021/10/27 02:53:30;;;;;;;21.25;16.97;;;;;;;4.95;80.74;100510.11;1688333;84;21942;-71
2021/10/27 02:55:56;;;;;;;23.75;16.25;;;;;;;4.95;80.74;100510.11;1689148;85;20980;-72
2021/10/27 02:58:23;;;;;;;22.35;16.20;;;;;;;4.94;80.68;100505.82;1607460;88;21014;-70
2021/10/27 03:00:50;;;;;;;20.82;15.63;;;;;;;4.92;80.71;100511.33;1669943;85;21071;-68
2021/10/27 03:03:16;;;;;;;21.30;16.65;;;;;;;4.92;80.82;100502.51;1687543;84;21078;-70
2021/10/27 03:05:43;;;;;;;25.50;16.30;;;;;;;4.89;80.86;100502.41;1650640;86;21769;-68
2021/10/27 03:08:09;;;;;;;19.70;16.15;;;;;;;4.91;81.00;100507.52;1677298;85;21573;-72
2021/10/27 03:10:35;;;;;;;19.90;14.98;;;;;;;4.92;81.15;100502.00;1654473;86;21000;-71
2021/10/27 03:13:01;;;;;;;19.85;15.88;;;;;;;4.96;81.13;100495.27;1656979;86;21564;-71
2021/10/27 03:15:28;;;;;;;23.95;16.40;;;;;;;4.94;81.13;100498.62;1656207;86;21020;-70
2021/10/27 03:17:54;;;;;;;21.80;17.95;;;;;;;4.93;81.19;100502.33;1596865;86;21250;-70
2021/10/27 03:20:21;;;;;;;26.75;17.10;;;;;;;4.93;81.19;100502.33;1664585;86;20945;-71
2021/10/27 03:22:47;;;;;;;20.75;16.25;;;;;;;4.93;81.35;100498.83;1625735;86;21071;-69
2021/10/27 03:25:15;;;;;;;26.42;16.80;;;;;;;4.89;81.58;100496.24;1677830;85;21017;-74
2021/10/27 03:27:41;;;;;;;25.82;17.55;;;;;;;4.87;81.77;100492.43;1651484;86;21522;-73
2021/10/27 03:30:09;;;;;;;22.85;16.07;;;;;;;4.85;81.95;100495.78;1659610;85;21316;-72
2021/10/27 03:32:36;;;;;;;20.80;16.23;;;;;;;4.79;82.50;100478.75;1614539;87;20973;-73
2021/10/27 03:35:04;;;;;;;20.50;17.45;;;;;;;4.78;82.83;100477.09;1625109;87;21045;-74
2021/10/27 03:37:31;;;;;;;22.75;17.30;;;;;;;4.78;82.83;100477.09;1669042;85;21005;-73
2021/10/27 03:39:57;;;;;;;22.22;16.82;;;;;;;4.76;82.92;100479.11;1685995;84;21188;-72
2021/10/27 03:42:23;;;;;;;22.67;16.95;;;;;;;4.76;82.95;100480.95;1678337;85;22212;-73
2021/10/27 03:44:50;;;;;;;23.52;17.42;;;;;;;4.73;83.17;100478.18;1678527;85;21575;-72
2021/10/27 03:47:17;;;;;;;22.77;16.55;;;;;;;4.74;83.16;100479.00;1669389;85;21069;-74
2021/10/27 03:49:43;;;;;;;21.82;16.48;;;;;;;4.77;83.28;100474.61;1650306;85;21092;-72
2021/10/27 03:52:09;;;;;;;19.35;17.23;;;;;;;4.80;83.33;100471.05;1648447;85;21672;-73
2021/10/27 03:54:36;;;;;;;22.07;17.75;;;;;;;4.84;83.32;100464.84;1687624;84;21040;-74
2021/10/27 03:57:05;;;;;;;21.70;16.77;;;;;;;4.84;83.32;100464.84;1655719;86;20999;-72
2021/10/27 03:59:31;;;;;;;24.57;15.25;;;;;;;4.82;83.33;100470.86;1651764;86;21030;-70
2021/10/27 04:01:58;;;;;;;21.05;16.50;;;;;;;4.78;83.38;100468.27;1660702;85;20971;-70
2021/10/27 04:04:24;;;;;;;22.95;16.93;;;;;;;4.76;83.52;100467.63;1633640;86;21532;-71
2021/10/27 04:06:51;;;;;;;21.05;16.30;;;;;;;4.68;83.81;100463.27;1654746;85;21620;-72
2021/10/27 04:09:17;;;;;;;17.85;15.38;;;;;;;4.68;83.81;100463.27;1688988;84;21035;-74
2021/10/27 04:11:45;;;;;;;18.67;15.78;;;;;;;4.71;83.92;100470.05;1688610;84;20940;-70
2021/10/27 04:14:11;;;;;;;23.07;17.45;;;;;;;4.74;84.08;100463.84;1660308;85;21024;-73
2021/10/27 04:16:38;;;;;;;22.58;16.97;;;;;;;4.76;84.14;100467.63;1655484;85;21111;-69
2021/10/27 04:19:05;;;;;;;24.52;17.73;;;;;;;4.77;84.16;100467.95;1689069;85;21488;-74
2021/10/27 04:21:31;;;;;;;20.90;16.30;;;;;;;4.76;84.16;100464.46;1660619;85;20960;-72
2021/10/27 04:23:58;;;;;;;22.62;16.80;;;;;;;4.74;84.22;100473.17;1689034;84;20980;-71
2021/10/27 04:26:25;;;;;;;22.70;16.40;;;;;;;4.70;84.28;100473.22;1669066;85;21114;-72
2021/10/27 04:28:52;;;;;;;25.90;17.50;;;;;;;4.66;84.54;100459.14;1658477;85;21037;-71
2021/10/27 04:31:20;;;;;;;24.60;15.18;;;;;;;4.64;84.68;100457.20;1689241;85;21120;-71
2021/10/27 04:33:47;;;;;;;27.05;14.85;;;;;;;4.64;84.92;100469.19;1689125;85;21013;-71
2021/10/27 04:36:13;;;;;;;23.02;13.78;;;;;;;4.64;84.92;100469.19;1688461;83;21009;-70
2021/10/27 04:38:40;;;;;;;24.47;17.00;;;;;;;4.64;85.07;100475.34;1676919;85;21013;-70
2021/10/27 04:41:06;;;;;;;19.40;15.72;;;;;;;4.65;85.08;100468.17;1676899;85;21481;-71
2021/10/27 04:43:33;;;;;;;22.75;16.55;;;;;;;4.64;85.10;100463.35;1689153;85;21162;-73
2021/10/27 04:45:59;;;;;;;21.45;15.20;;;;;;;4.62;85.14;100460.55;1674130;84;21000;-73
2021/10/27 04:48:27;;;;;;;17.42;14.28;;;;;;;4.60;85.18;100463.42;1633867;86;21040;-70
2021/10/27 04:50:53;;;;;;;18.32;14.05;;;;;;;4.59;85.35;100467.09;1661224;85;21486;-74
2021/10/27 04:53:22;;;;;;;18.67;15.08;;;;;;;4.61;85.51;100465.05;1637540;85;21115;-72
2021/10/27 04:55:51;;;;;;;15.68;13.98;;;;;;;4.66;85.57;100460.47;1676223;85;21364;-72
2021/10/27 04:58:18;;;;;;;14.65;12.93;;;;;;;4.68;85.43;100466.45;1689442;85;21024;-71
2021/10/27 05:00:44;;;;;;;18.12;13.18;;;;;;;4.68;85.38;100463.78;1676804;85;21214;-73
2021/10/27 05:03:10;;;;;;;16.25;11.97;;;;;;;4.66;85.32;100470.63;1689072;84;21024;-72
2021/10/27 05:05:45;;;;;;;20.37;12.90;;;;;;;4.64;85.36;100463.35;1679443;84;21104;-71
2021/10/27 05:08:06;;;;;;;21.12;14.85;;;;;;;4.63;85.40;100472.35;1626952;88;21185;-73
2021/10/27 05:10:32;;;;;;;18.20;13.80;;;;;;;4.60;85.55;100478.08;1661397;86;21564;-71
2021/10/27 05:12:59;;;;;;;22.22;14.35;;;;;;;4.58;85.70;100465.44;1599589;88;20993;-69
2021/10/27 05:15:26;;;;;;;24.77;16.40;;;;;;;4.63;85.86;100476.85;1656923;85;21051;-73
2021/10/27 05:17:53;;;;;;;16.97;13.93;;;;;;;4.64;85.87;100472.67;1631728;86;21115;-75
2021/10/27 05:20:19;;;;;;;20.08;13.43;;;;;;;4.66;85.93;100478.62;1676869;85;21057;-70
2021/10/27 05:22:46;;;;;;;18.30;14.53;;;;;;;4.67;85.89;100484.77;1645941;86;20991;-69
2021/10/27 05:25:12;;;;;;;21.52;14.28;;;;;;;4.63;85.99;100487.52;1631658;86;21044;-69
2021/10/27 05:27:38;;;;;;;18.02;13.75;;;;;;;4.60;86.09;100482.58;1665862;85;21024;-71
2021/10/27 05:30:06;;;;;;;16.57;14.65;;;;;;;4.62;86.19;100492.52;1630096;86;21553;-69
2021/10/27 05:32:33;;;;;;;21.82;16.93;;;;;;;4.62;86.27;100486.68;1684904;85;21254;-71
2021/10/27 05:35:00;;;;;;;19.25;12.95;;;;;;;4.65;86.40;100490.82;1658531;85;20995;-71
2021/10/27 05:37:26;;;;;;;17.50;14.03;;;;;;;4.69;86.34;100483.58;1660501;85;21056;-71
2021/10/27 05:39:53;;;;;;;25.08;14.50;;;;;;;4.73;86.37;100492.83;1689049;85;21180;-69
2021/10/27 05:42:27;;;;;;;16.62;12.45;;;;;;;4.74;86.27;100491.83;1650097;86;21074;-70
2021/10/27 05:44:51;;;;;;;19.07;13.20;;;;;;;4.72;86.22;100495.68;1634244;87;21125;-70
2021/10/27 05:47:18;;;;;;;23.20;15.38;;;;;;;4.71;86.36;100502.84;1650325;86;21075;-71
2021/10/27 05:49:50;;;;;;;15.43;11.93;;;;;;;4.68;86.44;100494.42;1689216;84;21015;-69
2021/10/27 05:57:43;;;;;;;16.48;13.20;;;;;;;4.82;86.67;100490.34;1617683;87;21228;-73
2021/10/27 05:59:55;;;;;;;19.92;13.90;;;;;;;4.86;86.52;100488.61;1629559;87;21058;-71
2021/10/27 06:02:22;;;;;;;15.60;12.43;;;;;;;4.87;86.49;100492.43;1633110;87;20937;-85
2021/10/27 06:04:48;;;;;;;18.92;13.55;;;;;;;4.90;86.49;100489.88;1643962;86;20986;-72
2021/10/27 06:07:15;;;;;;;17.73;13.43;;;;;;;4.93;86.44;100498.83;1651831;85;21160;-72
2021/10/27 06:09:42;;;;;;;18.95;14.83;;;;;;;4.93;86.42;100497.00;1687215;84;21391;-75
2021/10/27 06:12:13;;;;;;;21.23;14.10;;;;;;;4.94;86.45;100493.29;1687582;84;21023;-72
2021/10/27 06:14:36;;;;;;;23.30;15.50;;;;;;;5.00;86.52;100494.36;1681495;84;20946;-71
2021/10/27 06:17:03;;;;;;;24.00;13.95;;;;;;;5.06;86.56;100491.75;1678995;85;21170;-73
2021/10/27 06:19:30;;;;;;;18.50;14.55;;;;;;;5.14;86.46;100498.26;1687649;84;21532;-70
2021/10/27 06:21:56;;;;;;;21.25;14.35;;;;;;;5.22;86.23;100486.64;1679446;85;21753;-73
2021/10/27 06:24:23;;;;;;;21.52;15.75;;;;;;;5.26;86.00;100483.89;1679325;85;21055;-71
2021/10/27 06:26:51;;;;;;;20.68;13.45;;;;;;;5.21;85.81;100489.81;1672122;84;22267;-71
2021/10/27 06:29:27;;;;;;;24.60;14.65;;;;;;;5.18;85.81;100494.18;1659799;86;20928;-71
2021/10/27 06:31:57;;;;;;;22.95;15.38;;;;;;;5.22;85.90;100503.47;1650649;86;21000;-71
2021/10/27 06:34:29;;;;;;;22.87;16.27;;;;;;;5.30;85.87;100505.65;1662873;85;22080;-71
2021/10/27 06:47:31;;;;;;;35.28;16.77;;;;;;;5.61;84.74;100518.86;1662053;85;21040;-71
2021/10/27 06:49:57;;;;;;;27.52;15.83;;;;;;;5.62;84.72;100520.52;1687982;85;20991;-72
2021/10/27 06:52:24;;;;;;;36.05;17.73;;;;;;;5.76;84.40;100521.39;1679380;85;20965;-71
2021/10/27 06:54:52;;;;;;;27.15;14.33;;;;;;;5.76;84.40;100521.39;1679039;85;21093;-71
2021/10/27 06:57:24;;;;;;;29.45;16.55;;;;;;;5.82;84.06;100509.94;1664931;85;21694;-77
2021/10/27 06:59:49;;;;;;;21.57;16.75;;;;;;;5.85;83.88;100511.41;1686903;84;21232;-71
2021/10/27 07:15:35;;;;;;;30.85;17.73;;;;;;;6.28;82.33;100490.11;1672755;85;20953;-71
2021/10/27 07:18:03;;;;;;;35.20;18.05;;;;;;;6.42;82.08;100482.94;1667568;85;21105;-71
2021/10/27 07:20:29;;;;;;;36.80;17.23;;;;;;;6.51;81.62;100486.55;1657535;85;21000;-72
2021/10/27 07:23:04;;;;;;;35.43;19.65;;;;;;;6.57;80.86;100484.37;1631489;86;21160;-72
2021/10/27 07:25:35;;;;;;;26.82;16.17;;;;;;;6.63;80.46;100473.38;1647775;85;21255;-73
2021/10/27 07:28:02;;;;;;;31.60;18.00;;;;;;;6.69;79.94;100481.10;1647488;85;21952;-71
2021/10/27 07:30:28;;;;;;;25.72;17.40;;;;;;;6.72;79.79;100476.67;1630170;87;21061;-69
2021/10/27 07:32:57;;;;;;;39.48;19.27;;;;;;;6.78;79.68;100468.66;1666323;85;20960;-70
2021/10/27 07:35:34;;;;;;;36.42;20.90;;;;;;;6.81;79.17;100470.91;1685095;84;21548;-75
2021/10/27 07:40:43;;;;;;;41.25;18.55;;;;;;;6.95;78.45;100469.88;1633441;86;21099;-72
2021/10/27 07:43:15;;;;;;;27.07;16.20;;;;;;;7.09;78.34;100469.88;1647174;86;21062;-74
2021/10/27 07:45:39;;;;;;;39.78;20.88;;;;;;;7.21;77.70;100469.03;1647052;86;21138;-76
2021/10/27 07:48:06;;;;;;;35.55;20.02;;;;;;;7.32;77.28;100461.70;1670081;85;20995;-74
2021/10/27 07:50:34;;;;;;;36.42;20.62;;;;;;;7.38;76.69;100460.87;1631774;86;21068;-74
2021/10/27 07:53:02;;;;;;;32.42;19.20;;;;;;;7.45;76.43;100466.19;1657050;85;21036;-72
2021/10/27 07:55:30;;;;;;;37.40;19.17;;;;;;;7.52;76.02;100464.33;1657165;85;21013;-72
2021/10/27 07:57:56;;;;;;;38.48;18.17;;;;;;;7.59;75.62;100473.66;1674065;85;21046;-73
2021/10/27 08:00:23;;;;;;;48.48;23.55;;;;;;;7.66;74.90;100475.81;1680048;84;21259;-74
2021/10/27 08:02:51;;;;;;;38.67;19.75;;;;;;;7.67;74.39;100460.88;1682076;84;21549;-73
2021/10/27 08:05:19;;;;;;;34.20;19.52;;;;;;;7.73;73.50;100468.56;1684838;85;20995;-76
2021/10/27 08:07:48;;;;;;;34.67;19.52;;;;;;;7.79;72.79;100473.08;1658523;85;21485;-75
2021/10/27 08:10:17;;;;;;;28.05;18.05;;;;;;;7.86;72.47;100481.92;1630101;86;21225;-71
2021/10/27 08:12:43;;;;;;;29.18;16.85;;;;;;;7.95;71.98;100485.17;1684464;84;21055;-69
2021/10/27 08:15:11;;;;;;;28.77;17.75;;;;;;;8.00;71.42;100467.42;1687498;85;21947;-70
2021/10/27 08:17:40;;;;;;;30.45;17.50;;;;;;;8.08;71.17;100469.02;1664077;85;20944;-71
2021/10/27 08:20:09;;;;;;;25.72;17.02;;;;;;;8.15;70.69;100457.22;1641476;86;21201;-70
2021/10/27 08:22:37;;;;;;;30.57;18.95;;;;;;;8.22;70.45;100455.34;1676737;85;21013;-76
2021/10/27 08:25:06;;;;;;;16.90;14.03;;;;;;;8.31;70.26;100455.92;1639821;86;21552;-74
2021/10/27 08:27:36;;;;;;;33.92;16.73;;;;;;;8.42;69.80;100470.50;1644774;86;21277;-74
2021/10/27 08:30:08;;;;;;;25.30;18.65;;;;;;;8.47;69.47;100461.29;1673114;85;21038;-75
2021/10/27 08:35:15;;;;;;;35.35;19.85;;;;;;;8.61;68.48;100470.87;1639840;86;21026;-77
2021/10/27 08:37:46;;;;;;;31.05;18.02;;;;;;;8.65;68.45;100467.54;1649659;86;21083;-71
2021/10/27 08:40:16;;;;;;;30.27;17.60;;;;;;;8.74;68.25;100456.02;1675101;85;21619;-71
2021/10/27 08:42:43;;;;;;;42.08;22.40;;;;;;;8.83;67.87;100467.28;1639904;86;21040;-74
2021/10/27 08:45:10;;;;;;;27.55;19.48;;;;;;;8.88;67.45;100464.77;1630714;86;21035;-87
2021/10/27 08:47:39;;;;;;;30.80;20.45;;;;;;;8.95;67.37;100466.37;1663201;84;21517;-73
2021/10/27 08:50:09;;;;;;;31.17;18.82;;;;;;;9.04;67.24;100461.54;1673310;85;21075;-73
2021/10/27 08:52:35;;;;;;;24.67;15.88;;;;;;;9.16;67.00;100471.83;1677617;85;21076;-74
2021/10/27 08:55:03;;;;;;;28.25;16.95;;;;;;;9.27;66.28;100465.74;1661196;86;21007;-73
2021/10/27 08:57:30;;;;;;;35.58;21.57;;;;;;;9.35;64.95;100469.47;1631531;86;21536;-73
2021/10/27 09:05:29;;;;;;;23.70;17.05;;;;;;;9.54;63.63;100477.83;1632626;86;21101;-71
2021/10/27 09:47:27;;;;;;;25.97;16.35;;;;;;;10.63;59.11;100453.97;1628659;88;21254;-71
2021/10/27 10:06:14;;;;;;;18.02;13.30;;;;;;;10.99;57.59;100446.20;1617134;87;21059;-72
2021/10/27 10:08:45;;;;;;;23.45;17.20;;;;;;;11.08;57.43;100447.48;1633556;86;21596;-72
2021/10/27 10:11:12;;;;;;;21.87;17.85;;;;;;;11.13;57.32;100448.95;1612382;87;21078;-71
2021/10/27 10:13:39;;;;;;;22.55;16.27;;;;;;;11.18;57.18;100441.52;1629434;86;21308;-73
2021/10/27 10:16:07;;;;;;;23.02;17.35;;;;;;;11.23;56.88;100452.40;1616789;86;21023;-72
2021/10/27 10:18:34;;;;;;;17.90;15.65;;;;;;;11.27;56.74;100449.00;1688471;85;20989;-71
2021/10/27 10:21:00;;;;;;;19.87;14.73;;;;;;;11.27;56.82;100445.52;1635649;86;21085;-72
2021/10/27 10:23:27;;;;;;;24.60;15.85;;;;;;;11.31;56.71;100452.06;1643543;86;21573;-86
2021/10/27 10:26:06;;;;;;;20.62;15.40;;;;;;;11.34;56.36;100440.81;1635989;87;21063;-71
2021/10/27 10:28:32;;;;;;;17.92;15.48;;;;;;;11.35;56.43;100442.45;1654034;85;21487;-72
2021/10/27 10:31:04;;;;;;;27.58;15.35;;;;;;;11.41;56.36;100440.69;1648848;86;21101;-74
2021/10/27 10:33:41;;;;;;;26.68;16.00;;;;;;;11.44;55.71;100437.52;1628399;85;21034;-74
2021/10/27 10:36:14;;;;;;;21.73;16.02;;;;;;;11.43;55.80;100440.73;1689406;84;20974;-74
2021/10/27 10:41:21;;;;;;;26.85;17.90;;;;;;;11.46;55.56;100442.15;1640045;86;21020;-77
2021/10/27 11:39:09;;;;;;;23.92;16.32;;;;;;;11.16;58.01;100456.58;1619023;86;21036;-76
2021/10/27 11:41:21;;;;;;;20.90;15.70;;;;;;;11.14;58.16;100445.73;1643578;86;21036;-76
2021/10/27 11:43:57;;;;;;;29.42;17.67;;;;;;;11.11;58.29;100437.61;1653070;86;21091;-79
2021/10/27 11:46:28;;;;;;;25.00;18.00;;;;;;;11.12;58.43;100455.94;1630989;86;21269;-78
2021/10/27 11:49:10;;;;;;;22.58;15.88;;;;;;;11.13;58.56;100442.74;1633315;86;20964;-80
2021/10/27 11:51:37;;;;;;;19.02;15.35;;;;;;;11.13;58.69;100441.40;1655333;86;21522;-80
2021/10/27 11:54:11;;;;;;;22.95;18.32;;;;;;;11.15;58.83;100460.32;1654684;85;21016;-70
2021/10/27 11:56:38;;;;;;;27.02;17.15;;;;;;;11.14;58.96;100455.98;1655422;86;21090;-76
2021/10/27 11:59:04;;;;;;;28.70;19.75;;;;;;;11.11;59.08;100444.34;1627857;86;21838;-83
2021/10/27 12:01:37;;;;;;;30.95;19.07;;;;;;;11.11;59.20;100450.25;1654649;86;20936;-84
2021/10/27 12:04:19;;;;;;;28.17;19.00;;;;;;;11.11;59.38;100463.72;1648874;85;21059;-84
2021/10/27 12:07:07;;;;;;;23.57;18.90;;;;;;;11.08;59.57;100450.18;1660651;86;21519;-75
2021/10/27 12:12:11;;;;;;;24.18;18.87;;;;;;;11.06;60.04;100458.21;1639410;86;21117;-75
2021/10/27 12:17:40;;;;;;;29.87;20.40;;;;;;;11.01;60.37;100465.64;1642541;86;20960;-74
2021/10/27 12:19:44;;;;;;;32.75;21.87;;;;;;;11.02;60.58;100463.77;1685731;84;21579;-73
2021/10/27 12:22:11;;;;;;;31.10;21.50;;;;;;;11.01;60.72;100464.30;1625047;86;21082;-81
2021/10/27 12:24:39;;;;;;;28.95;19.05;;;;;;;11.03;60.98;100460.83;1659196;85;21116;-75
2021/10/27 12:27:27;;;;;;;27.55;21.37;;;;;;;11.05;61.26;100467.34;1634320;87;21086;-77
2021/10/27 12:29:53;;;;;;;26.45;20.08;;;;;;;11.04;61.75;100469.20;1620477;86;21000;-72
2021/10/27 12:32:19;;;;;;;31.73;21.07;;;;;;;11.01;61.66;100464.30;1658671;86;21067;-74
2021/10/27 12:34:49;;;;;;;33.65;21.35;;;;;;;11.01;61.80;100463.48;1659866;86;20976;-72
2021/10/27 12:37:35;;;;;;;40.92;25.82;;;;;;;10.99;63.26;100483.06;1659564;86;21016;-73
2021/10/27 12:40:26;;;;;;;33.30;22.50;;;;;;;10.94;63.75;100460.36;1636453;86;21605;-82
2021/10/27 12:43:03;;;;;;;33.63;23.73;;;;;;;10.91;63.52;100469.44;1675795;85;21359;-83
2021/10/27 12:45:49;;;;;;;34.63;23.25;;;;;;;10.87;63.49;100491.14;1654763;86;20999;-69
2021/10/27 12:48:37;;;;;;;27.42;21.42;;;;;;;10.84;63.53;100464.67;1649655;86;21109;-82
2021/10/27 12:51:08;;;;;;;27.42;20.10;;;;;;;10.82;63.60;100478.91;1613964;87;21082;-85
2021/10/27 12:53:40;;;;;;;30.27;21.62;;;;;;;10.81;63.76;100468.67;1642637;86;21015;-82
2021/10/27 12:56:18;;;;;;;24.45;19.00;;;;;;;10.80;64.03;100479.12;1640340;86;21500;-84
2021/10/27 12:58:50;;;;;;;29.35;20.37;;;;;;;10.80;64.21;100472.92;1662257;86;21068;-74
2021/10/27 13:07:17;;;;;;;23.15;17.55;;;;;;;10.78;64.94;100480.43;1632727;87;21521;-79
2021/10/27 13:09:52;;;;;;;27.05;20.92;;;;;;;10.78;65.67;100485.29;1638328;86;21106;-78
2021/10/27 13:22:51;;;;;;;22.07;16.85;;;;;;;10.66;68.46;100491.67;1548706;92;21157;-75
2021/10/27 13:31:03;;;;;;;27.70;17.95;;;;;;;10.52;68.78;100494.28;1612075;87;21199;-71
2021/10/27 13:33:29;;;;;;;26.85;18.85;;;;;;;10.47;68.74;100499.83;1622202;87;21032;-71
2021/10/27 13:35:55;;;;;;;25.95;18.95;;;;;;;10.43;68.93;100513.44;1670768;85;21052;-73
2021/10/27 13:38:25;;;;;;;28.45;19.60;;;;;;;10.42;68.98;100511.79;1655506;86;21007;-75
2021/10/27 13:40:50;;;;;;;28.07;20.25;;;;;;;10.38;69.09;100544.23;1657892;86;21063;-73
2021/10/27 13:43:22;;;;;;;28.75;20.27;;;;;;;10.34;69.12;100503.23;1630010;87;21276;-77
2021/10/27 13:45:52;;;;;;;25.25;18.40;;;;;;;10.29;69.41;100522.73;1639100;86;21063;-76
2021/10/27 14:09:52;;;;;;;32.65;20.40;;;;;;;10.03;70.68;100542.67;1688591;84;21312;-73
2021/10/27 14:20:17;;;;;;;27.45;20.32;;;;;;;9.93;71.46;100557.16;1635871;87;21041;-76
2021/10/27 14:39:25;;;;;;;20.43;14.47;;;;;;;9.61;74.25;100581.17;1632083;86;21728;-75
2021/10/27 14:47:24;;;;;;;23.35;16.35;;;;;;;9.64;74.33;100574.00;1649778;86;22254;-80
2021/10/27 15:19:55;;;;;;;22.02;16.32;;;;;;;9.69;74.20;100596.98;1658108;85;21004;-77
2021/10/27 15:25:33;;;;;;;18.52;14.70;;;;;;;9.63;74.54;100601.41;1662552;84;21021;-78
2021/10/27 15:28:08;;;;;;;24.67;17.00;;;;;;;9.67;74.58;100606.33;1607794;86;21067;-80
2021/10/27 15:33:24;;;;;;;21.00;14.70;;;;;;;9.74;74.38;100598.48;1632349;86;21057;-82
2021/10/27 15:44:37;;;;;;;24.87;18.00;;;;;;;9.75;74.34;100615.44;1649547;86;21182;-78
2021/10/27 15:52:06;;;;;;;20.77;13.83;;;;;;;9.76;74.55;100623.80;1613554;86;21076;-72
2021/10/27 15:54:32;;;;;;;16.73;13.43;;;;;;;9.78;74.57;100615.84;1643028;86;21055;-71
2021/10/27 15:56:59;;;;;;;20.43;14.33;;;;;;;9.80;74.55;100606.19;1643273;87;21241;-73
2021/10/27 15:59:25;;;;;;;19.52;14.58;;;;;;;9.81;74.49;100613.21;1629885;87;21577;-72
2021/10/27 16:01:52;;;;;;;19.82;14.80;;;;;;;9.81;74.52;100615.90;1643387;87;21531;-73